La Crosse Municipal Airport
KLSE : rendu visible

Aérodrome :











RETROUVEZ-NOUS SUR...

 
LOGIN :

S'inscrire | Disclaimer

   EN    FR    IT 

 









Légende :    VFR   VFR Marginal   IFR   IFR Intensif   IFR Très Intensif
Visi : 
Plafond : 
>= 8 km
>= 3000ft
5 à 8 km
1000 à 3000 ft
1500m à 5 km
500 à 1000 ft
800 à 1500m
200 à 500 ft
< 800m
< 200 ft
Symboles :   Orages  Brouillard  Fortes neiges  Fortes précipitations  Vent > 20 kt






- Altitude de l'aérodrome : 655 ft
- Code IATA : LSE


KLSE - La Crosse Municipal

DERNIER METAR :
  • 121853Z 16006KT 10SM CLR M08/M18 A3047 RMK AO2 SLP339 T10781183

METARs EXPIRÉS :
  • 121753Z 00000KT 10SM CLR M09/M18 A3050 RMK AO2 SLP350 T10891183 11083 21144 58021
  • 121653Z 34005KT 10SM CLR M09/M18 A3054 RMK AO2 SLP363 T10891183
  • 121553Z 34006KT 10SM CLR M10/M18 A3055 RMK AO2 SLP369 T11001183

TAF KLSE
Valide du 12 à 18h jusqu'au 13 à 18h UTC


121720Z 1218/1318 VRB05KT P6SM FEW250
FM130300 17010G18KT P6SM BKN150
FM131300 19011KT P6SM OVC080
FM131500 19011KT P6SM -SN SCT035 OVC070



MET'MAP, la Météo Aéronautique d'un coup d'oeil ! - Copyright ORBIFLY Décembre 2007 - Disclaimer

ORBIFLY MET'MAP TEAM :

Programmation & Développement : Alexandra Zaïnal
Conception & Développement : Baudouin d'Aumeries
Co-Programmation & Développement : Marc-Olivier Méhu
Soutien technique & logistique : Manuel Goepfert

Contact : metmap@orbifly.com




SOURCES & CREDITS :

   NOAA       Earth
Advisory